createdAt,value
2023-01-18T00:02:41.043Z,18.83
2023-01-18T00:05:44.754Z,39.30
2023-01-18T00:08:49.949Z,16.75
2023-01-18T00:11:53.286Z,19.63
2023-01-18T00:14:59.326Z,19.48
2023-01-18T00:18:03.631Z,14.52
2023-01-18T00:21:08.866Z,15.93
2023-01-18T00:24:15.764Z,17.15
2023-01-18T00:27:19.259Z,13.00
2023-01-18T00:30:25.670Z,18.10
2023-01-18T00:33:29.346Z,17.35
2023-01-18T00:36:33.068Z,18.20
2023-01-18T00:39:41.347Z,16.30
2023-01-18T00:43:02.245Z,17.08
2023-01-18T00:46:05.999Z,14.07
2023-01-18T00:49:09.575Z,15.45
2023-01-18T00:52:13.015Z,15.90
2023-01-18T00:55:18.367Z,18.95
2023-01-18T00:58:21.739Z,21.00
2023-01-18T01:01:25.422Z,18.50
2023-01-18T01:04:43.329Z,18.02
2023-01-18T01:07:49.817Z,17.27
2023-01-18T01:11:04.501Z,18.73
2023-01-18T01:14:25.348Z,16.83
2023-01-18T01:17:49.985Z,18.45
2023-01-18T01:21:10.730Z,17.92
2023-01-18T01:24:31.860Z,21.00
2023-01-18T01:27:36.577Z,19.35
2023-01-18T01:30:39.947Z,20.65
2023-01-18T01:33:44.475Z,25.70
2023-01-18T01:36:47.940Z,19.83
2023-01-18T01:39:53.659Z,22.13
2023-01-18T01:42:59.035Z,19.27
2023-01-18T01:46:03.618Z,18.85
2023-01-18T01:49:11.156Z,22.63
2023-01-18T01:52:17.832Z,20.00
2023-01-18T01:55:27.973Z,22.50
2023-01-18T01:58:33.500Z,23.98
2023-01-18T02:01:40.384Z,26.70
2023-01-18T02:04:46.558Z,18.23
2023-01-18T02:07:50.670Z,21.00
2023-01-18T02:10:54.326Z,24.02
2023-01-18T02:14:04.263Z,27.50
2023-01-18T02:17:21.887Z,23.67
2023-01-18T02:20:49.967Z,20.97
2023-01-18T02:24:32.746Z,26.23
2023-01-18T02:27:43.706Z,24.33
2023-01-18T02:30:52.987Z,23.33
2023-01-18T02:34:01.108Z,20.95
2023-01-18T02:37:12.089Z,25.17
2023-01-18T02:40:23.041Z,21.92
2023-01-18T02:43:45.555Z,26.10
2023-01-18T02:46:52.960Z,26.60
2023-01-18T02:49:57.154Z,24.65
2023-01-18T02:53:00.709Z,22.58
2023-01-18T02:56:07.926Z,21.25
2023-01-18T02:59:16.417Z,22.38
2023-01-18T03:02:24.613Z,22.42
2023-01-18T03:05:32.366Z,25.02
2023-01-18T03:08:39.766Z,26.88
2023-01-18T03:11:54.938Z,27.03
2023-01-18T03:15:11.213Z,24.67
2023-01-18T03:18:26.209Z,26.17
2023-01-18T03:21:37.440Z,21.02
2023-01-18T03:24:41.407Z,27.05
2023-01-18T03:28:08.094Z,24.42
2023-01-18T03:31:36.510Z,22.95
2023-01-18T03:34:51.137Z,22.38
2023-01-18T03:37:57.562Z,23.33
2023-01-18T03:41:03.031Z,24.02
2023-01-18T03:44:14.727Z,26.27
2023-01-18T03:47:18.305Z,23.58
2023-01-18T03:50:30.794Z,26.98
2023-01-18T03:53:40.189Z,24.63
2023-01-18T03:56:49.717Z,28.30
2023-01-18T03:59:57.242Z,25.73
2023-01-18T04:03:01.265Z,26.48
2023-01-18T04:06:09.031Z,27.55
2023-01-18T04:09:12.971Z,25.25
2023-01-18T04:12:16.350Z,27.77
2023-01-18T04:15:20.351Z,24.33
2023-01-18T04:18:24.085Z,25.70
2023-01-18T04:21:29.285Z,21.85
2023-01-18T04:24:32.794Z,24.42
2023-01-18T04:27:36.275Z,25.45
2023-01-18T04:34:22.217Z,25.20
2023-01-18T04:37:31.226Z,28.30
2023-01-18T04:40:34.573Z,26.08
2023-01-18T04:43:38.112Z,27.95
2023-01-18T04:46:41.568Z,27.35
2023-01-18T04:49:46.481Z,28.65
2023-01-18T04:52:50.137Z,36.22
2023-01-18T04:55:53.906Z,34.13
2023-01-18T04:58:59.315Z,38.60
2023-01-18T05:02:02.639Z,33.00
2023-01-18T05:05:08.308Z,37.53
2023-01-18T05:08:11.717Z,34.38
2023-01-18T05:11:17.556Z,31.88
2023-01-18T05:19:03.153Z,29.98
2023-01-18T05:22:08.032Z,31.38
2023-01-18T05:25:14.499Z,31.85
2023-01-18T05:28:17.941Z,32.60
2023-01-18T05:31:24.615Z,31.63
2023-01-18T05:34:28.661Z,35.10
2023-01-18T05:37:33.729Z,35.00
2023-01-18T05:40:37.094Z,34.58
2023-01-18T05:43:40.584Z,36.80
2023-01-18T05:46:44.210Z,32.30
2023-01-18T05:49:47.890Z,39.08
2023-01-18T05:52:52.723Z,39.15
2023-01-18T05:55:58.373Z,41.22
2023-01-18T05:59:05.913Z,36.88
2023-01-18T06:02:09.403Z,36.40
2023-01-18T06:05:12.972Z,34.67
2023-01-18T06:08:18.127Z,33.55
2023-01-18T06:11:21.696Z,26.17
2023-01-18T06:14:25.105Z,34.42
2023-01-18T06:17:31.296Z,38.72
2023-01-18T06:20:34.732Z,36.75
2023-01-18T06:23:41.636Z,38.60
2023-01-18T06:26:44.952Z,40.67
2023-01-18T06:29:48.444Z,42.58
2023-01-18T06:32:52.103Z,34.67
2023-01-18T06:35:55.534Z,38.38
2023-01-18T06:39:00.396Z,38.20
2023-01-18T06:42:03.806Z,36.35
2023-01-18T06:45:11.455Z,36.17
2023-01-18T06:48:15.033Z,39.95
2023-01-18T06:51:22.095Z,35.65
2023-01-18T06:54:27.275Z,37.83
2023-01-18T06:57:30.791Z,42.38
2023-01-18T07:00:35.019Z,37.53
2023-01-18T07:03:39.786Z,40.17
2023-01-18T07:06:44.527Z,41.67
2023-01-18T07:09:49.754Z,39.97
2023-01-18T07:12:55.584Z,37.30
2023-01-18T07:16:01.918Z,38.90
2023-01-18T07:19:06.569Z,39.38
2023-01-18T07:22:10.322Z,41.97
2023-01-18T07:25:18.703Z,41.97
2023-01-18T07:28:22.121Z,41.55
2023-01-18T07:31:25.544Z,47.03
2023-01-18T07:34:33.927Z,52.30
2023-01-18T07:37:37.953Z,47.90
2023-01-18T07:40:42.716Z,58.83
2023-01-18T07:43:46.756Z,56.72
2023-01-18T07:46:50.117Z,52.30
2023-01-18T07:49:53.680Z,58.20
2023-01-18T07:53:00.717Z,59.72
2023-01-18T07:56:08.075Z,63.15
2023-01-18T07:59:11.944Z,60.20
2023-01-18T08:02:15.676Z,63.65
2023-01-18T08:05:23.806Z,62.85
2023-01-18T08:08:28.689Z,66.88
2023-01-18T08:11:33.700Z,72.35
2023-01-18T08:14:37.095Z,70.45
2023-01-18T08:17:40.487Z,80.30
2023-01-18T08:20:44.610Z,81.03
2023-01-18T08:23:47.983Z,68.15
2023-01-18T08:26:52.707Z,56.40
2023-01-18T08:29:56.760Z,58.47
2023-01-18T08:33:02.074Z,56.33
2023-01-18T08:36:06.253Z,62.65
2023-01-18T08:39:09.722Z,53.33
2023-01-18T08:42:14.758Z,68.32
2023-01-18T08:45:18.236Z,63.92
2023-01-18T08:48:21.722Z,66.45
2023-01-18T08:51:26.193Z,66.90
2023-01-18T08:54:29.750Z,55.33
2023-01-18T08:57:34.740Z,62.10
2023-01-18T09:00:38.093Z,68.38
2023-01-18T09:03:42.055Z,60.13
2023-01-18T09:06:47.197Z,51.38
2023-01-18T09:09:50.611Z,51.67
2023-01-18T09:12:57.696Z,52.35
2023-01-18T09:16:02.685Z,48.80
2023-01-18T09:19:09.826Z,43.75
2023-01-18T09:22:13.430Z,46.28
2023-01-18T09:25:20.829Z,39.33
2023-01-18T09:28:25.917Z,37.83
2023-01-18T09:31:31.484Z,39.83
2023-01-18T09:34:35.015Z,35.30
2023-01-18T09:37:38.646Z,31.95
2023-01-18T09:40:45.046Z,26.25
2023-01-18T09:43:55.648Z,29.38
2023-01-18T09:47:02.977Z,33.85
2023-01-18T09:50:14.784Z,38.55
2023-01-18T09:53:31.946Z,33.03
2023-01-18T09:56:43.312Z,26.15
2023-01-18T09:59:55.229Z,26.05
2023-01-18T10:03:02.253Z,25.17
2023-01-18T10:06:10.444Z,24.77
2023-01-18T10:09:17.331Z,24.45
2023-01-18T10:12:28.160Z,20.52
2023-01-18T10:15:36.498Z,23.80
2023-01-18T10:18:45.679Z,27.52
2023-01-18T10:21:56.259Z,28.88
2023-01-18T10:25:04.184Z,24.10
2023-01-18T10:28:25.182Z,25.10
2023-01-18T10:34:22.748Z,27.10
2023-01-18T10:37:38.851Z,25.88
2023-01-18T10:40:44.755Z,24.88
2023-01-18T10:43:48.176Z,23.75
2023-01-18T10:46:57.073Z,22.98
2023-01-18T10:50:01.813Z,22.35
2023-01-18T10:53:22.905Z,18.90
2023-01-18T10:56:28.136Z,21.67
2023-01-18T10:59:37.268Z,22.83
2023-01-18T11:02:43.913Z,26.30
2023-01-18T11:05:48.641Z,21.08
2023-01-18T11:08:52.736Z,19.55
2023-01-18T11:12:37.445Z,18.92
2023-01-18T11:15:41.054Z,25.35
2023-01-18T11:19:02.400Z,17.45
2023-01-18T11:22:13.325Z,15.90
2023-01-18T11:25:18.432Z,15.70
2023-01-18T11:28:30.329Z,14.50
2023-01-18T11:31:46.611Z,13.93
2023-01-18T11:34:53.095Z,16.88
2023-01-18T11:38:01.930Z,14.88
2023-01-18T11:41:13.724Z,12.65
2023-01-18T11:44:23.757Z,12.93
2023-01-18T11:47:33.876Z,11.30
2023-01-18T11:50:43.332Z,10.10
2023-01-18T11:53:59.568Z,10.73
2023-01-18T11:57:03.838Z,8.82
2023-01-18T12:00:15.401Z,9.07
2023-01-18T12:03:42.106Z,11.65
2023-01-18T12:07:03.263Z,10.38
2023-01-18T12:10:44.469Z,10.07
2023-01-18T12:13:55.714Z,10.07
2023-01-18T12:17:16.270Z,13.35
2023-01-18T12:20:29.083Z,10.35
2023-01-18T12:24:04.642Z,12.00
2023-01-18T12:27:18.297Z,18.83
2023-01-18T12:30:44.553Z,13.65
2023-01-18T12:33:57.991Z,15.23
2023-01-18T12:37:23.638Z,15.75
2023-01-18T12:40:48.945Z,14.52
2023-01-18T12:44:14.444Z,15.38
2023-01-18T12:47:32.790Z,17.02
2023-01-18T12:50:38.889Z,17.35
2023-01-18T12:53:46.051Z,21.77
2023-01-18T12:56:54.577Z,19.27
2023-01-18T13:00:07.157Z,20.67
2023-01-18T13:03:14.394Z,17.48
2023-01-18T13:06:20.983Z,19.50
2023-01-18T13:09:33.194Z,18.65
2023-01-18T13:12:36.931Z,18.92
2023-01-18T13:15:49.697Z,21.25
2023-01-18T13:18:59.537Z,20.75
2023-01-18T13:22:14.179Z,19.70
2023-01-18T13:25:33.497Z,19.95
2023-01-18T13:28:38.209Z,22.20
2023-01-18T13:31:43.051Z,21.42
2023-01-18T13:34:48.961Z,21.48
2023-01-18T13:37:56.111Z,25.17
2023-01-18T13:41:02.791Z,21.35
2023-01-18T13:44:08.438Z,19.63
2023-01-18T13:47:50.308Z,18.38
2023-01-18T13:50:55.259Z,19.13
2023-01-18T13:53:59.675Z,21.48
2023-01-18T13:57:17.653Z,19.45
2023-01-18T14:00:24.980Z,19.52
2023-01-18T14:03:31.578Z,19.27
2023-01-18T14:06:39.250Z,18.75
2023-01-18T14:09:45.588Z,24.13
2023-01-18T14:12:50.743Z,23.52
2023-01-18T14:15:55.292Z,20.67
2023-01-18T14:19:04.758Z,21.13
2023-01-18T14:22:26.838Z,19.10
2023-01-18T14:25:48.322Z,19.35
2023-01-18T14:28:55.081Z,16.75
2023-01-18T14:31:59.359Z,18.30
2023-01-18T14:35:04.461Z,17.08
2023-01-18T14:38:18.350Z,18.55
2023-01-18T14:41:22.320Z,15.93
2023-01-18T14:44:33.526Z,17.58
2023-01-18T14:47:38.471Z,15.30
2023-01-18T14:50:45.786Z,15.25
2023-01-18T14:53:54.083Z,15.93
2023-01-18T14:57:08.304Z,20.55
2023-01-18T15:00:17.902Z,20.73
2023-01-18T15:03:26.210Z,19.65
2023-01-18T15:06:37.614Z,18.65
2023-01-18T15:09:44.348Z,20.65
2023-01-18T15:12:51.881Z,16.58
2023-01-18T15:15:58.233Z,18.85
2023-01-18T15:22:08.634Z,18.00
2023-01-18T15:25:21.562Z,29.30
2023-01-18T15:28:31.018Z,15.40
2023-01-18T15:31:48.796Z,20.55
2023-01-18T15:34:54.335Z,16.80
2023-01-18T15:37:58.795Z,25.30
2023-01-18T15:41:06.305Z,23.45
2023-01-18T15:44:34.364Z,22.33
2023-01-18T15:47:37.880Z,22.73
2023-01-18T15:50:46.417Z,21.80
2023-01-18T15:53:56.184Z,25.48
2023-01-18T15:57:13.742Z,24.33
2023-01-18T16:00:29.938Z,21.52
2023-01-18T16:03:38.288Z,20.92
2023-01-18T16:06:45.499Z,28.02
2023-01-18T16:09:49.126Z,19.50
2023-01-18T16:12:54.132Z,20.00
2023-01-18T16:16:21.638Z,26.52
2023-01-18T16:19:29.998Z,23.13
2023-01-18T16:22:37.136Z,20.42
2023-01-18T16:25:40.737Z,21.52
2023-01-18T16:28:45.756Z,21.38
2023-01-18T16:34:25.443Z,24.40
2023-01-18T16:37:30.681Z,23.45
2023-01-18T16:40:38.955Z,23.50
2023-01-18T16:43:44.901Z,27.70
2023-01-18T16:46:49.690Z,21.40
2023-01-18T16:49:54.984Z,22.48
2023-01-18T16:52:58.787Z,23.52
2023-01-18T16:56:02.189Z,21.13
2023-01-18T16:59:16.233Z,21.67
2023-01-18T17:02:19.959Z,21.75
2023-01-18T17:05:25.075Z,18.08
2023-01-18T17:08:29.094Z,16.35
2023-01-18T17:11:32.583Z,16.77
2023-01-18T17:14:36.547Z,17.23
2023-01-18T17:17:43.272Z,19.00
2023-01-18T17:20:48.267Z,16.67
2023-01-18T17:23:51.783Z,14.23
2023-01-18T17:26:56.601Z,17.38
2023-01-18T17:30:00.074Z,16.10
2023-01-18T17:33:04.081Z,17.90
2023-01-18T17:36:09.748Z,21.25
2023-01-18T17:39:14.771Z,18.20
2023-01-18T17:42:29.762Z,16.05
2023-01-18T17:45:33.664Z,14.85
2023-01-18T17:48:37.159Z,18.20
2023-01-18T17:51:41.968Z,14.18
2023-01-18T17:54:45.533Z,21.40
2023-01-18T17:57:49.020Z,15.90
2023-01-18T18:00:52.488Z,16.88
2023-01-18T18:03:56.119Z,17.00
2023-01-18T18:07:01.200Z,15.73
2023-01-18T18:10:05.574Z,18.55
2023-01-18T18:13:09.288Z,19.90
2023-01-18T18:16:18.261Z,17.17
2023-01-18T18:19:22.089Z,20.23
2023-01-18T18:22:31.759Z,17.92
2023-01-18T18:25:35.187Z,18.35
2023-01-18T18:28:38.733Z,20.00
2023-01-18T18:31:44.004Z,19.02
2023-01-18T18:34:47.583Z,17.60
2023-01-18T18:37:53.567Z,18.00
2023-01-18T18:41:03.737Z,20.27
2023-01-18T18:44:07.736Z,21.65
2023-01-18T18:47:13.380Z,19.50
2023-01-18T18:50:18.525Z,18.23
2023-01-18T18:53:37.000Z,16.83
2023-01-18T18:56:41.966Z,18.73
2023-01-18T18:59:45.981Z,19.48
2023-01-18T19:02:49.745Z,21.15
2023-01-18T19:05:53.496Z,17.80
2023-01-18T19:08:58.670Z,18.35
2023-01-18T19:12:02.426Z,20.05
2023-01-18T19:15:06.848Z,18.60
2023-01-18T19:18:11.694Z,19.88
2023-01-18T19:21:15.334Z,21.70
2023-01-18T19:24:20.355Z,22.00
2023-01-18T19:27:24.600Z,23.25
2023-01-18T19:30:28.131Z,22.80
2023-01-18T19:33:31.643Z,29.63
2023-01-18T19:36:35.300Z,25.77
2023-01-18T19:39:40.147Z,23.40
2023-01-18T19:42:44.442Z,28.75
2023-01-18T19:45:47.888Z,30.38
2023-01-18T19:48:57.022Z,25.90
2023-01-18T19:52:00.502Z,21.80
2023-01-18T19:55:05.703Z,21.45
2023-01-18T19:58:09.459Z,22.25
2023-01-18T20:01:26.570Z,21.77
2023-01-18T20:04:34.273Z,19.98
2023-01-18T20:07:39.390Z,23.75
2023-01-18T20:10:44.172Z,20.60
2023-01-18T20:13:50.298Z,23.00
2023-01-18T20:16:54.873Z,23.58
2023-01-18T20:20:32.536Z,33.72
2023-01-18T20:23:43.053Z,30.27
2023-01-18T20:27:22.540Z,30.17
2023-01-18T20:30:34.039Z,31.83
2023-01-18T20:33:38.441Z,22.55
2023-01-18T20:36:41.785Z,22.70
2023-01-18T20:39:45.553Z,18.15
2023-01-18T20:42:50.334Z,31.38
2023-01-18T20:46:01.205Z,32.85
2023-01-18T20:49:05.225Z,36.33
2023-01-18T20:52:09.744Z,60.85
2023-01-18T20:55:14.848Z,19.50
2023-01-18T20:58:20.740Z,32.25
2023-01-18T21:01:31.622Z,21.35
2023-01-18T21:04:35.374Z,27.58
2023-01-18T21:07:40.787Z,19.60
2023-01-18T21:10:45.844Z,24.83
2023-01-18T21:13:50.658Z,23.20
2023-01-18T21:16:55.329Z,25.70
2023-01-18T21:20:03.843Z,18.67
2023-01-18T21:23:09.848Z,23.52
2023-01-18T21:30:00.709Z,23.27
2023-01-18T21:33:04.419Z,20.67
2023-01-18T21:36:10.534Z,19.08
2023-01-18T21:39:18.354Z,31.38
2023-01-18T21:45:59.010Z,31.05
2023-01-18T21:49:07.073Z,40.58
2023-01-18T21:55:30.911Z,32.08
2023-01-18T21:58:52.005Z,25.52
2023-01-18T22:01:57.135Z,21.08
2023-01-18T22:05:01.033Z,21.63
2023-01-18T22:08:04.915Z,29.70
2023-01-18T22:11:08.277Z,25.67
2023-01-18T22:14:12.167Z,24.85
2023-01-18T22:17:18.711Z,21.90
2023-01-18T22:20:22.137Z,21.73
2023-01-18T22:23:25.611Z,25.67
2023-01-18T22:26:31.328Z,27.40
2023-01-18T22:29:35.101Z,21.45
2023-01-18T22:34:21.685Z,27.85
2023-01-18T22:37:29.647Z,22.75
2023-01-18T22:40:33.499Z,26.10
2023-01-18T22:43:37.339Z,26.55
2023-01-18T22:46:40.832Z,25.77
2023-01-18T22:49:47.753Z,28.00
2023-01-18T22:52:51.526Z,33.15
2023-01-18T22:55:56.586Z,32.80
2023-01-18T22:59:00.679Z,29.17
2023-01-18T23:02:04.376Z,28.90
2023-01-18T23:05:10.967Z,29.88
2023-01-18T23:08:15.294Z,25.63
2023-01-18T23:11:21.982Z,20.70
2023-01-18T23:14:43.357Z,25.13
2023-01-18T23:17:46.808Z,24.85
2023-01-18T23:20:57.771Z,24.67
2023-01-18T23:24:01.421Z,27.45
2023-01-18T23:27:06.142Z,34.25
2023-01-18T23:30:14.039Z,29.23
2023-01-18T23:33:17.542Z,35.33
2023-01-18T23:36:23.690Z,28.83
2023-01-18T23:39:44.642Z,32.30
2023-01-18T23:43:05.314Z,24.38
2023-01-18T23:46:26.129Z,23.73
2023-01-18T23:49:47.357Z,34.40
2023-01-18T23:53:09.605Z,36.30
2023-01-18T23:56:13.421Z,36.67
2023-01-18T23:59:16.953Z,30.05
